Pearcot, Washington
Current Conditions -  °F | °C
As of 9:55 AM on Monday 20 Oct 2014 (Local Time) from KEAT Reporting Station
Overcast Overcast  
Wind Chill: 55°   Ceiling: 7000
Heat Index: 55°   Visibility: 10mi
Dew Point: 49°   Wind: 0mph
Humidity: 80%   Direction: NA
Pressure: 29.74"   Gusts: NA
Location:  47.3635°N, 120.348°W
Report Text: KEAT 201655Z AUTO 00000KT 10SM BKN070 OVC090 13/09 A2974 RMK AO2 SLP068 T01280094
Loading
Personal Weather Stations






























Interactive Weather Map
Tropical Storm Tracking
New forecast layout! Learn more

10-Day Weather Forecast

Advertisements
Track Severe Weather on mobile